createdAt,value
2022-12-05T00:04:56.145Z,6.41
2022-12-05T00:09:58.097Z,5.95
2022-12-05T00:14:59.418Z,5.90
2022-12-05T00:20:00.661Z,5.95
2022-12-05T00:25:03.205Z,6.05
2022-12-05T00:30:05.931Z,6.17
2022-12-05T00:35:07.527Z,5.90
2022-12-05T00:40:09.355Z,5.77
2022-12-05T00:45:11.791Z,5.87
2022-12-05T00:50:12.933Z,5.97
2022-12-05T00:55:16.171Z,5.75
2022-12-05T01:00:17.946Z,6.06
2022-12-05T01:05:20.147Z,5.99
2022-12-05T01:10:21.568Z,5.96
2022-12-05T01:15:22.561Z,6.13
2022-12-05T01:20:23.720Z,6.18
2022-12-05T01:25:24.727Z,6.13
2022-12-05T01:30:25.912Z,5.97
2022-12-05T01:35:26.936Z,5.82
2022-12-05T01:40:28.411Z,5.74
2022-12-05T01:45:38.940Z,5.74
2022-12-05T01:50:40.565Z,5.85
2022-12-05T01:55:41.938Z,5.84
2022-12-05T02:00:43.810Z,5.69
2022-12-05T02:05:48.484Z,5.61
2022-12-05T02:10:52.553Z,5.59
2022-12-05T02:16:18.820Z,5.69
2022-12-05T02:21:39.067Z,5.66
2022-12-05T02:27:02.017Z,5.54
2022-12-05T02:32:10.367Z,5.67
2022-12-05T02:37:26.766Z,5.92
2022-12-05T02:42:35.244Z,5.96
2022-12-05T02:47:42.524Z,5.77
2022-12-05T02:52:46.340Z,5.62
2022-12-05T02:57:52.368Z,5.61
2022-12-05T03:02:58.975Z,5.79
2022-12-05T03:08:03.907Z,5.94
2022-12-05T03:13:13.075Z,6.05
2022-12-05T03:18:49.023Z,6.25
2022-12-05T03:23:55.877Z,6.18
2022-12-05T03:29:03.089Z,6.09
2022-12-05T03:34:09.053Z,5.97
2022-12-05T03:39:20.755Z,6.04
2022-12-05T03:44:51.534Z,6.27
2022-12-05T03:50:00.948Z,6.27
2022-12-05T03:55:05.978Z,6.09
2022-12-05T04:00:20.586Z,6.11
2022-12-05T04:05:26.351Z,6.00
2022-12-05T04:10:31.193Z,5.95
2022-12-05T04:15:53.397Z,5.93
2022-12-05T04:21:16.085Z,5.93
2022-12-05T04:26:30.948Z,5.92
2022-12-05T04:31:41.452Z,5.70
2022-12-05T04:37:11.492Z,5.69
2022-12-05T04:42:25.127Z,5.51
2022-12-05T04:47:31.342Z,5.32
2022-12-05T04:52:33.102Z,5.38
2022-12-05T04:57:47.563Z,5.34
2022-12-05T05:03:00.301Z,5.59
2022-12-05T05:08:01.464Z,5.66
2022-12-05T05:13:02.754Z,5.59
2022-12-05T05:18:04.141Z,5.78
2022-12-05T05:23:05.850Z,6.00
2022-12-05T05:28:06.862Z,6.17
2022-12-05T05:33:09.149Z,6.24
2022-12-05T05:38:11.534Z,6.45
2022-12-05T05:43:12.659Z,5.64
2022-12-05T05:48:13.714Z,4.69
2022-12-05T05:53:15.927Z,6.31
2022-12-05T05:58:16.899Z,7.19
2022-12-05T06:03:18.178Z,5.39
2022-12-05T06:08:19.370Z,3.95
2022-12-05T06:13:20.787Z,4.65
2022-12-05T06:18:22.154Z,5.04
2022-12-05T06:23:24.830Z,5.33
2022-12-05T06:28:25.991Z,5.56
2022-12-05T06:33:28.056Z,5.48
2022-12-05T06:38:29.784Z,5.26
2022-12-05T06:43:30.822Z,5.10
2022-12-05T06:48:32.066Z,5.38
2022-12-05T06:53:33.680Z,5.58
2022-12-05T06:58:34.638Z,5.76
2022-12-05T07:03:36.156Z,5.86
2022-12-05T07:08:38.410Z,5.92
2022-12-05T07:13:39.483Z,5.80
2022-12-05T07:18:40.538Z,5.99
2022-12-05T07:23:43.982Z,6.12
2022-12-05T07:28:45.810Z,6.21
2022-12-05T07:33:46.947Z,6.18
2022-12-05T07:38:47.952Z,6.26
2022-12-05T07:43:53.919Z,6.27
2022-12-05T07:48:55.415Z,6.20
2022-12-05T07:53:58.507Z,6.30
2022-12-05T07:59:00.800Z,5.99
2022-12-05T08:04:01.887Z,4.38
2022-12-05T08:09:02.905Z,5.54
2022-12-05T08:14:06.446Z,6.53
2022-12-05T08:19:12.426Z,6.09
2022-12-05T08:24:14.289Z,4.04
2022-12-05T08:29:15.742Z,3.40
2022-12-05T08:34:19.570Z,4.61
2022-12-05T08:39:20.782Z,5.74
2022-12-05T08:44:22.055Z,6.58
2022-12-05T08:49:23.521Z,6.42
2022-12-05T08:54:24.796Z,6.23
2022-12-05T08:59:25.954Z,6.20
2022-12-05T09:04:28.079Z,6.27
2022-12-05T09:09:29.555Z,6.57
2022-12-05T09:14:32.286Z,6.08
2022-12-05T09:19:33.316Z,4.07
2022-12-05T09:24:34.758Z,3.81
2022-12-05T09:29:36.641Z,5.91
2022-12-05T09:34:38.441Z,7.05
2022-12-05T09:39:39.581Z,5.08
2022-12-05T09:45:02.722Z,4.28
2022-12-05T09:50:14.654Z,5.35
2022-12-05T09:55:18.162Z,5.83
2022-12-05T10:00:19.659Z,6.01
2022-12-05T10:05:37.037Z,6.00
2022-12-05T10:11:02.825Z,5.83
2022-12-05T10:16:42.054Z,5.96
2022-12-05T10:22:04.126Z,6.17
2022-12-05T10:27:07.998Z,6.26
2022-12-05T10:32:31.092Z,6.39
2022-12-05T10:37:32.180Z,6.21
2022-12-05T10:42:35.371Z,4.55
2022-12-05T10:47:36.765Z,4.90
2022-12-05T10:52:37.932Z,5.47
2022-12-05T10:57:38.996Z,5.85
2022-12-05T11:02:40.995Z,6.05
2022-12-05T11:07:42.045Z,6.24
2022-12-05T11:12:44.126Z,6.41
2022-12-05T11:17:45.797Z,6.43
2022-12-05T11:22:49.594Z,6.09
2022-12-05T11:27:50.930Z,4.33
2022-12-05T11:33:11.354Z,4.62
2022-12-05T11:38:16.315Z,5.43
2022-12-05T11:43:39.503Z,5.77
2022-12-05T11:48:55.205Z,6.00
2022-12-05T11:55:03.373Z,6.22
2022-12-05T12:00:11.873Z,6.26
2022-12-05T12:05:29.020Z,5.68
2022-12-05T12:10:42.380Z,3.94
2022-12-05T12:16:08.506Z,4.40
2022-12-05T12:21:18.562Z,5.13
2022-12-05T12:26:39.397Z,5.45
2022-12-05T12:32:05.849Z,5.60
2022-12-05T12:37:21.034Z,5.76
2022-12-05T12:42:30.528Z,5.84
2022-12-05T12:48:04.535Z,5.86
2022-12-05T12:53:31.267Z,5.65
2022-12-05T12:58:41.334Z,5.77
2022-12-05T13:03:56.032Z,5.90
2022-12-05T13:09:02.671Z,6.01
2022-12-05T13:14:11.204Z,5.96
2022-12-05T13:19:40.027Z,5.92
2022-12-05T13:24:42.227Z,5.93
2022-12-05T13:29:54.736Z,6.00
2022-12-05T13:35:06.715Z,5.96
2022-12-05T13:40:51.630Z,5.97
2022-12-05T13:46:18.341Z,6.05
2022-12-05T13:51:29.715Z,5.97
2022-12-05T13:57:02.588Z,5.99
2022-12-05T14:02:42.587Z,5.98
2022-12-05T14:07:50.002Z,5.90
2022-12-05T14:12:57.046Z,5.89
2022-12-05T14:18:22.232Z,6.02
2022-12-05T14:24:13.171Z,5.92
2022-12-05T14:29:37.407Z,5.93
2022-12-05T14:35:00.215Z,5.83
2022-12-05T14:40:16.154Z,5.92
2022-12-05T14:45:38.762Z,6.00
2022-12-05T14:50:43.234Z,5.88
2022-12-05T14:55:46.930Z,5.75
2022-12-05T15:01:08.608Z,5.73
2022-12-05T15:06:14.779Z,5.66
2022-12-05T15:11:27.488Z,5.30
2022-12-05T15:16:32.900Z,5.16
2022-12-05T15:21:55.934Z,5.38
2022-12-05T15:26:58.739Z,5.46
2022-12-05T15:32:10.866Z,5.59
2022-12-05T15:37:36.991Z,5.86
2022-12-05T15:42:45.000Z,6.15
2022-12-05T15:47:48.416Z,6.33
2022-12-05T15:52:55.547Z,6.54
2022-12-05T15:58:23.888Z,6.58
2022-12-05T16:03:39.612Z,6.64
2022-12-05T16:08:48.325Z,6.07
2022-12-05T16:13:54.411Z,4.17
2022-12-05T16:19:02.572Z,3.01
2022-12-05T16:24:20.025Z,3.48
2022-12-05T16:29:27.471Z,5.24
2022-12-05T16:34:32.782Z,5.59
2022-12-05T16:39:33.950Z,5.79
2022-12-05T16:45:04.373Z,5.91
2022-12-05T16:50:28.653Z,6.13
2022-12-05T16:55:37.338Z,6.17
2022-12-05T17:00:38.511Z,6.18
2022-12-05T17:05:39.574Z,6.24
2022-12-05T17:10:42.275Z,6.37
2022-12-05T17:15:44.116Z,6.42
2022-12-05T17:20:49.839Z,6.39
2022-12-05T17:25:54.179Z,6.46
2022-12-05T17:30:55.294Z,6.52
2022-12-05T17:35:57.961Z,6.64
2022-12-05T17:41:02.560Z,6.00
2022-12-05T17:46:07.635Z,4.16
2022-12-05T17:51:10.595Z,4.53
2022-12-05T17:56:12.420Z,5.80
2022-12-05T18:01:16.467Z,6.18
2022-12-05T18:06:17.756Z,6.46
2022-12-05T18:11:19.075Z,6.74
2022-12-05T18:16:20.153Z,6.54
2022-12-05T18:21:21.706Z,4.72
2022-12-05T18:26:22.843Z,3.40
2022-12-05T18:31:23.919Z,3.36
2022-12-05T18:36:25.106Z,4.78
2022-12-05T18:41:26.576Z,5.93
2022-12-05T18:46:28.305Z,6.63
2022-12-05T18:51:29.823Z,6.80
2022-12-05T18:56:34.062Z,6.86
2022-12-05T19:01:38.478Z,6.87
2022-12-05T19:06:42.484Z,6.77
2022-12-05T19:11:47.674Z,6.72
2022-12-05T19:16:57.883Z,6.82
2022-12-05T19:22:01.397Z,5.86
2022-12-05T19:27:03.263Z,5.30
2022-12-05T19:32:04.719Z,6.19
2022-12-05T19:37:06.207Z,6.34
2022-12-05T19:42:07.438Z,6.42
2022-12-05T19:47:08.879Z,6.60
2022-12-05T19:52:09.943Z,6.70
2022-12-05T19:57:11.860Z,6.76
2022-12-05T20:02:13.055Z,6.88
2022-12-05T20:07:14.626Z,6.44
2022-12-05T20:12:15.692Z,4.65
2022-12-05T20:17:17.377Z,3.48
2022-12-05T20:22:18.499Z,2.78
2022-12-05T20:27:19.667Z,3.85
2022-12-05T20:32:20.670Z,6.49
2022-12-05T20:37:21.757Z,7.86
2022-12-05T20:42:22.861Z,7.65
2022-12-05T20:47:24.724Z,5.45
2022-12-05T20:52:27.725Z,4.07
2022-12-05T20:57:28.782Z,4.28
2022-12-05T21:02:29.878Z,6.42
2022-12-05T21:07:34.250Z,7.82
2022-12-05T21:12:35.409Z,8.91
2022-12-05T21:17:38.519Z,7.85
2022-12-05T21:22:39.644Z,5.47
2022-12-05T21:27:43.976Z,4.11
2022-12-05T21:32:45.118Z,5.48
2022-12-05T21:37:46.239Z,7.92
2022-12-05T21:42:50.413Z,7.87
2022-12-05T21:47:53.091Z,5.61
2022-12-05T21:52:55.186Z,4.22
2022-12-05T21:57:56.266Z,4.62
2022-12-05T22:02:58.939Z,7.22
2022-12-05T22:08:04.864Z,8.00
2022-12-05T22:13:07.493Z,7.07
2022-12-05T22:18:08.646Z,5.13
2022-12-05T22:23:13.868Z,3.96
2022-12-05T22:28:18.048Z,3.92
2022-12-05T22:33:19.120Z,5.59
2022-12-05T22:38:20.065Z,6.45
2022-12-05T22:43:22.567Z,6.97
2022-12-05T22:48:25.658Z,7.51
2022-12-05T22:53:27.379Z,7.92
2022-12-05T22:58:28.921Z,7.55
2022-12-05T23:03:30.211Z,5.59
2022-12-05T23:08:35.542Z,4.27
2022-12-05T23:13:38.579Z,4.53
2022-12-05T23:18:46.311Z,5.99
2022-12-05T23:23:51.923Z,6.44
2022-12-05T23:28:53.349Z,6.58
2022-12-05T23:34:01.331Z,6.75
2022-12-05T23:39:05.520Z,6.85
2022-12-05T23:44:09.846Z,6.95
2022-12-05T23:49:12.918Z,6.96
2022-12-05T23:54:15.799Z,6.87
2022-12-05T23:59:16.791Z,6.87
